Santa Barbara — 3FWW8 — position and weather

sailwx.info

Track history (hours):
 
Tides and Currents Weather Stations Pressure Air Temp Water Temp Dewpoint Dewpoint Depression Visibility Wind Speed Wind Dir Waves Ship Positions

Santa Barbara

Last reported at 2017-Feb-23 06:33 UTC. Time now 2017-Feb-23 07:03 UTC.
Position N 49°18' W 123°04'.

Length 225 m; draft 8 m.

Type: Cargo ship. MMSI: 372230000.

Date/timePositionNaut miles runAvg speedWind from/ knotsBaromVisibWave heightAir tempDewpointWater temp
2017-Feb-23 06:33N 49°18' W 123°04'0 0.0
2017-Feb-23 05:33N 49°18' W 123°04'0 0.0
2017-Feb-23 04:33N 49°18' W 123°04'0 0.0
2017-Feb-23 03:33N 49°18' W 123°04'0 0.0
2017-Feb-23 02:33N 49°18' W 123°04'0 0.0
2017-Feb-23 01:33N 49°18' W 123°04'0 0.0
2017-Feb-23 00:33N 49°18' W 123°04'0 0.0
2017-Feb-22 23:33N 49°18' W 123°04'0 0.0
2017-Feb-22 22:33N 49°18' W 123°04'0 0.0
2017-Feb-22 21:33N 49°18' W 123°04'0 0.0
2017-Feb-22 20:33N 49°18' W 123°04'0 0.0
2017-Feb-22 19:33N 49°18' W 123°04'0 0.0
2017-Feb-22 18:33N 49°18' W 123°04'1 1.3
2017-Feb-22 17:33N 49°18' W 123°06'3 3.0
2017-Feb-22 16:31N 49°18' W 123°11'0 0.1
2017-Feb-22 15:31N 49°18' W 123°11'0 0.0
2017-Feb-22 14:31N 49°18' W 123°11'0 0.0
2017-Feb-22 13:31N 49°18' W 123°11'0 0.0
2017-Feb-22 12:31N 49°18' W 123°11'0 0.1
2017-Feb-22 11:31N 49°18' W 123°11'0 0.1
2017-Feb-22 10:32N 49°18' W 123°11'0 0.0
2017-Feb-22 09:31N 49°18' W 123°11'0 0.1
2017-Feb-22 08:31N 49°18' W 123°11'0 0.0
2017-Feb-22 07:31N 49°18' W 123°11'0 0.0
2017-Feb-22 06:31N 49°18' W 123°11'0 0.0
2017-Feb-22 05:31N 49°18' W 123°11'0 0.0
2017-Feb-22 04:31N 49°18' W 123°11'0 0.0
2017-Feb-22 03:31N 49°18' W 123°11'1 1.5
2017-Feb-22 02:34N 49°19' W 123°13'1313.0
2017-Feb-22 01:34N 49°06' W 123°20'1313.0
2017-Feb-22 00:33N 48°56' W 123°09'1111.0
2017-Feb-21 23:33N 48°45' W 123°05'1110.9
2017-Feb-21 22:33N 48°36' W 123°13'1212.3
2017-Feb-21 21:33N 48°24' W 123°14'1010.3
2017-Feb-21 20:33N 48°17' W 123°26'9 8.9
2017-Feb-21 19:33N 48°13' W 123°38'6 6.4
2017-Feb-21 18:33N 48°13' W 123°47'7 6.9
2017-Feb-21 17:33N 48°14' W 123°57'8 8.3
2017-Feb-21 16:33N 48°18' W 124°09'8 8.0
2017-Feb-21 15:33N 48°21' W 124°20'1414.0
2017-Feb-21 14:34N 48°27' W 124°39'1413.6
2017-Feb-21 13:32N 48°29' W 124°59'1313.1
2017-Feb-21 12:33N 48°29' W 125°19'1312.7
2017-Feb-21 11:33N 48°29' W 125°38'1313.0
2017-Feb-21 10:33N 48°29' W 125°58'1313.2
2017-Feb-21 09:33N 48°29' W 126°18'  
Track history (hours):
 
Tides and Currents Weather Stations Pressure Air Temp Water Temp Dewpoint Dewpoint Depression Visibility Wind Speed Wind Dir Waves Ship Positions

Santa Barbara

Last reported at 2017-Feb-23 06:33 UTC. Time now 2017-Feb-23 07:03 UTC.
Position N 49°18' W 123°04'.

Length 225 m; draft 8 m.

Type: Cargo ship. MMSI: 372230000.

Date/timePositionNaut miles runAvg speedWind from/ knotsBaromVisibWave heightAir tempDewpointWater temp
2017-Feb-23 06:33N 49°18' W 123°04'0 0.0
2017-Feb-23 05:33N 49°18' W 123°04'0 0.0
2017-Feb-23 04:33N 49°18' W 123°04'0 0.0
2017-Feb-23 03:33N 49°18' W 123°04'0 0.0
2017-Feb-23 02:33N 49°18' W 123°04'0 0.0
2017-Feb-23 01:33N 49°18' W 123°04'0 0.0
2017-Feb-23 00:33N 49°18' W 123°04'0 0.0
2017-Feb-22 23:33N 49°18' W 123°04'0 0.0
2017-Feb-22 22:33N 49°18' W 123°04'0 0.0
2017-Feb-22 21:33N 49°18' W 123°04'0 0.0
2017-Feb-22 20:33N 49°18' W 123°04'0 0.0
2017-Feb-22 19:33N 49°18' W 123°04'0 0.0
2017-Feb-22 18:33N 49°18' W 123°04'1 1.3
2017-Feb-22 17:33N 49°18' W 123°06'3 3.0
2017-Feb-22 16:31N 49°18' W 123°11'0 0.1
2017-Feb-22 15:31N 49°18' W 123°11'0 0.0
2017-Feb-22 14:31N 49°18' W 123°11'0 0.0
2017-Feb-22 13:31N 49°18' W 123°11'0 0.0
2017-Feb-22 12:31N 49°18' W 123°11'0 0.1
2017-Feb-22 11:31N 49°18' W 123°11'0 0.1
2017-Feb-22 10:32N 49°18' W 123°11'0 0.0
2017-Feb-22 09:31N 49°18' W 123°11'0 0.1
2017-Feb-22 08:31N 49°18' W 123°11'0 0.0
2017-Feb-22 07:31N 49°18' W 123°11'0 0.0
2017-Feb-22 06:31N 49°18' W 123°11'0 0.0
2017-Feb-22 05:31N 49°18' W 123°11'0 0.0
2017-Feb-22 04:31N 49°18' W 123°11'0 0.0
2017-Feb-22 03:31N 49°18' W 123°11'1 1.5
2017-Feb-22 02:34N 49°19' W 123°13'1313.0
2017-Feb-22 01:34N 49°06' W 123°20'1313.0
2017-Feb-22 00:33N 48°56' W 123°09'1111.0
2017-Feb-21 23:33N 48°45' W 123°05'1110.9
2017-Feb-21 22:33N 48°36' W 123°13'1212.3
2017-Feb-21 21:33N 48°24' W 123°14'1010.3
2017-Feb-21 20:33N 48°17' W 123°26'9 8.9
2017-Feb-21 19:33N 48°13' W 123°38'6 6.4
2017-Feb-21 18:33N 48°13' W 123°47'7 6.9
2017-Feb-21 17:33N 48°14' W 123°57'8 8.3
2017-Feb-21 16:33N 48°18' W 124°09'8 8.0
2017-Feb-21 15:33N 48°21' W 124°20'1414.0
2017-Feb-21 14:34N 48°27' W 124°39'1413.6
2017-Feb-21 13:32N 48°29' W 124°59'1313.1
2017-Feb-21 12:33N 48°29' W 125°19'1312.7
2017-Feb-21 11:33N 48°29' W 125°38'1313.0
2017-Feb-21 10:33N 48°29' W 125°58'1313.2
2017-Feb-21 09:33N 48°29' W 126°18'  

Dump ship's entire track history